Time;durP1;ratioP1;P1;durP2;ratioP2;P2;SDS_P1;SDS_P2;PMS_P1;PMS_P2;Temp;Humidity;BMP_temperature;BMP_pressure;BME280_temperature;BME280_humidity;BME280_pressure;Samples;Min_cycle;Max_cycle;Signal;HPM_P1;HPM_P2
2023/10/02 00:01:52;;;;;;;23.63;5.72;;;;;;;;;;5056117;28;20418;-87
2023/10/02 00:04:18;;;;;;;16.25;5.28;;;;;;;;;;5056063;28;20042;-87
2023/10/02 00:06:47;;;;;;;17.15;5.75;;;;;;;;;;5055732;28;20016;-87
2023/10/02 00:09:13;;;;;;;14.60;5.47;;;;;;;;;;5055540;28;20166;-87
2023/10/02 00:11:41;;;;;;;17.02;6.05;;;;;;;;;;5055836;28;20025;-87
2023/10/02 00:14:19;;;;;;;15.20;5.38;;;;;;;;;;5057893;28;20048;-87
2023/10/02 00:16:58;;;;;;;16.83;5.25;;;;;;;;;;5058057;28;20060;-87
2023/10/02 00:19:30;;;;;;;16.25;5.50;;;;;;;;;;5057615;28;20111;-87
2023/10/02 00:22:07;;;;;;;29.67;6.18;;;;;;;;;;5057868;28;20460;-87
2023/10/02 00:24:37;;;;;;;13.88;5.57;;;;;;;;;;5056818;28;20059;-87
2023/10/02 00:27:04;;;;;;;16.77;5.57;;;;;;;;;;5056390;28;20038;-87
2023/10/02 00:29:29;;;;;;;16.95;5.75;;;;;;;;;;5056651;28;20021;-87
2023/10/02 00:31:56;;;;;;;19.42;6.72;;;;;;;;;;5055291;28;20022;-87
2023/10/02 00:34:30;;;;;;;16.83;5.35;;;;;;;;;;5055897;28;20020;-88
2023/10/02 00:36:56;;;;;;;14.00;5.18;;;;;;;;;;5052682;28;20017;-87
2023/10/02 00:39:25;;;;;;;20.13;5.05;;;;;;;;;;5055061;28;20015;-87
2023/10/02 00:47:38;;;;;;;18.60;5.50;;;;;;;;;;5073576;28;20032;-87
2023/10/02 00:50:08;;;;;;;15.35;5.55;;;;;;;;;;5055572;28;20135;-87
2023/10/02 00:52:36;;;;;;;17.75;4.88;;;;;;;;;;5055103;28;20084;-87
2023/10/02 00:55:05;;;;;;;14.73;5.00;;;;;;;;;;5055022;28;20031;-88
2023/10/02 00:57:35;;;;;;;13.48;4.88;;;;;;;;;;5055156;28;20012;-87
2023/10/02 01:00:05;;;;;;;15.32;5.10;;;;;;;;;;5054710;28;20444;-87
2023/10/02 01:02:31;;;;;;;14.68;5.20;;;;;;;;;;5055299;28;20081;-87
2023/10/02 01:04:56;;;;;;;18.02;5.57;;;;;;;;;;5055238;28;20028;-87
2023/10/02 01:07:22;;;;;;;16.25;5.25;;;;;;;;;;5055304;28;20063;-88
2023/10/02 01:10:07;;;;;;;16.98;5.07;;;;;;;;;;5053845;28;20028;-87
2023/10/02 01:12:43;;;;;;;13.13;4.68;;;;;;;;;;5055062;28;20480;-87
2023/10/02 01:15:11;;;;;;;15.35;5.35;;;;;;;;;;5054781;28;20154;-87
2023/10/02 01:17:39;;;;;;;22.40;5.25;;;;;;;;;;5058087;28;20033;-87
2023/10/02 01:22:52;;;;;;;18.02;5.20;;;;;;;;;;5074120;28;20036;-87
2023/10/02 01:25:23;;;;;;;17.95;5.05;;;;;;;;;;5055958;28;20013;-87
2023/10/02 01:27:51;;;;;;;18.10;5.78;;;;;;;;;;5060490;28;20031;-87
2023/10/02 01:30:21;;;;;;;19.25;5.60;;;;;;;;;;5061628;28;20040;-87
2023/10/02 01:35:58;;;;;;;27.92;6.15;;;;;;;;;;4992479;28;20032;-87
2023/10/02 01:38:30;;;;;;;18.05;5.75;;;;;;;;;;5045185;28;20037;-87
2023/10/02 01:41:07;;;;;;;15.60;4.85;;;;;;;;;;5060568;28;20448;-87
2023/10/02 01:43:33;;;;;;;16.00;5.20;;;;;;;;;;5058813;28;20028;-87
2023/10/02 01:46:00;;;;;;;20.77;5.93;;;;;;;;;;5087500;28;20025;-87
2023/10/02 01:48:44;;;;;;;15.93;5.50;;;;;;;;;;5056749;28;20032;-87
2023/10/02 01:51:16;;;;;;;20.60;5.97;;;;;;;;;;5045871;28;20474;-87
2023/10/02 01:53:45;;;;;;;23.83;5.90;;;;;;;;;;5054939;28;20545;-87
2023/10/02 01:56:15;;;;;;;17.52;5.53;;;;;;;;;;5058158;28;20016;-87
2023/10/02 01:58:44;;;;;;;20.92;6.40;;;;;;;;;;5057837;28;20036;-87
2023/10/02 02:01:10;;;;;;;14.70;5.30;;;;;;;;;;5044241;28;20028;-87
2023/10/02 02:03:36;;;;;;;21.20;6.65;;;;;;;;;;5057846;28;20025;-87
2023/10/02 02:06:10;;;;;;;25.15;6.32;;;;;;;;;;5057798;28;20099;-86
2023/10/02 02:08:36;;;;;;;22.02;6.65;;;;;;;;;;5048582;28;20021;-87
2023/10/02 02:11:14;;;;;;;19.00;6.53;;;;;;;;;;5057803;28;20464;-87
2023/10/02 02:13:44;;;;;;;16.55;5.68;;;;;;;;;;5057825;28;20332;-87
2023/10/02 02:16:35;;;;;;;18.27;6.38;;;;;;;;;;5057562;28;20019;-88
2023/10/02 02:19:07;;;;;;;22.10;6.15;;;;;;;;;;5057349;28;20021;-87
2023/10/02 02:21:34;;;;;;;15.77;5.57;;;;;;;;;;5056783;28;20440;-87
2023/10/02 02:24:07;;;;;;;16.83;5.18;;;;;;;;;;5057764;28;20468;-87
2023/10/02 02:26:33;;;;;;;21.15;5.55;;;;;;;;;;5056996;28;20025;-88
2023/10/02 02:28:59;;;;;;;19.42;5.25;;;;;;;;;;5068834;28;20111;-87
2023/10/02 02:31:31;;;;;;;15.55;5.03;;;;;;;;;;5060058;28;20025;-87
2023/10/02 02:33:57;;;;;;;18.00;5.75;;;;;;;;;;5058252;28;20111;-87
2023/10/02 02:36:28;;;;;;;19.17;5.90;;;;;;;;;;5048952;28;20067;-88
2023/10/02 02:39:16;;;;;;;21.48;6.40;;;;;;;;;;5061777;28;20020;-87
2023/10/02 02:41:45;;;;;;;21.45;5.55;;;;;;;;;;5064136;28;20046;-87
2023/10/02 02:44:32;;;;;;;20.20;6.18;;;;;;;;;;5062127;28;20081;-87
2023/10/02 02:46:56;;;;;;;22.88;6.35;;;;;;;;;;5064581;28;20086;-88
2023/10/02 02:49:23;;;;;;;20.10;6.20;;;;;;;;;;5057853;28;20373;-87
2023/10/02 02:51:55;;;;;;;20.05;5.95;;;;;;;;;;5057067;28;20379;-87
2023/10/02 02:54:24;;;;;;;19.50;6.35;;;;;;;;;;5058034;28;20514;-88
2023/10/02 02:56:56;;;;;;;25.45;6.28;;;;;;;;;;5057656;28;20021;-87
2023/10/02 02:59:26;;;;;;;19.65;5.43;;;;;;;;;;5058182;28;20025;-87
2023/10/02 03:01:52;;;;;;;19.05;5.85;;;;;;;;;;5059669;28;20376;-88
2023/10/02 03:04:18;;;;;;;18.15;6.18;;;;;;;;;;5055548;28;20085;-87
2023/10/02 03:06:44;;;;;;;18.50;5.35;;;;;;;;;;5057322;28;20376;-88
2023/10/02 03:09:09;;;;;;;20.13;6.10;;;;;;;;;;5054340;28;20025;-88
2023/10/02 03:11:35;;;;;;;18.73;5.65;;;;;;;;;;5069888;28;20450;-88
2023/10/02 03:14:12;;;;;;;16.92;5.40;;;;;;;;;;5074869;28;20476;-88
2023/10/02 03:16:44;;;;;;;19.77;5.78;;;;;;;;;;5057392;28;20024;-88
2023/10/02 03:19:13;;;;;;;20.70;5.57;;;;;;;;;;5057111;28;20048;-87
2023/10/02 03:21:38;;;;;;;15.18;5.25;;;;;;;;;;5057369;28;20379;-88
2023/10/02 03:24:07;;;;;;;20.35;5.88;;;;;;;;;;5057352;28;20024;-88
2023/10/02 03:29:04;;;;;;;18.05;5.78;;;;;;;;;;5062999;28;20020;-87
2023/10/02 03:31:36;;;;;;;16.35;5.97;;;;;;;;;;5057157;28;20085;-88
2023/10/02 03:34:27;;;;;;;16.17;5.93;;;;;;;;;;5056358;28;20360;-88
2023/10/02 03:36:52;;;;;;;22.52;6.25;;;;;;;;;;5066398;28;20016;-88
2023/10/02 03:39:23;;;;;;;18.95;5.32;;;;;;;;;;5056482;28;20012;-88
2023/10/02 03:41:55;;;;;;;15.20;4.60;;;;;;;;;;5056905;28;20020;-88
2023/10/02 03:44:22;;;;;;;23.48;5.68;;;;;;;;;;5057926;28;20035;-88
2023/10/02 03:46:48;;;;;;;22.50;5.95;;;;;;;;;;5056821;28;20482;-88
2023/10/02 03:49:17;;;;;;;19.65;5.70;;;;;;;;;;5074812;28;20534;-88
2023/10/02 03:51:44;;;;;;;20.13;6.05;;;;;;;;;;5060927;28;20032;-88
2023/10/02 03:54:22;;;;;;;15.95;5.50;;;;;;;;;;5061472;28;20020;-88
2023/10/02 03:56:49;;;;;;;26.33;6.22;;;;;;;;;;5048866;28;20028;-88
2023/10/02 03:59:17;;;;;;;21.20;5.43;;;;;;;;;;5060812;28;20021;-88
2023/10/02 04:01:43;;;;;;;19.45;5.53;;;;;;;;;;5091866;28;20380;-88
2023/10/02 04:06:42;;;;;;;20.25;6.15;;;;;;;;;;5062700;28;20476;-88
2023/10/02 04:11:43;;;;;;;19.88;5.47;;;;;;;;;;5075853;28;20447;-88
2023/10/02 04:14:17;;;;;;;20.05;6.10;;;;;;;;;;5058779;28;20017;-88
2023/10/02 04:16:51;;;;;;;17.98;5.28;;;;;;;;;;5055730;28;20115;-88
2023/10/02 04:19:22;;;;;;;18.00;5.88;;;;;;;;;;5055894;28;20464;-88
2023/10/02 04:21:48;;;;;;;22.85;5.82;;;;;;;;;;5056029;28;20376;-88
2023/10/02 04:24:13;;;;;;;19.92;6.32;;;;;;;;;;5055951;28;20028;-88
2023/10/02 04:26:41;;;;;;;24.13;6.03;;;;;;;;;;5055233;28;20025;-87
2023/10/02 04:31:41;;;;;;;22.77;6.45;;;;;;;;;;5074234;28;20031;-88
2023/10/02 04:34:23;;;;;;;23.02;5.65;;;;;;;;;;5055397;28;20434;-88
2023/10/02 04:36:51;;;;;;;16.67;5.93;;;;;;;;;;5055550;28;20464;-88
2023/10/02 04:42:15;;;;;;;20.25;5.70;;;;;;;;;;5073350;28;20031;-88
2023/10/02 04:44:46;;;;;;;22.27;5.57;;;;;;;;;;5055452;28;20032;-87
2023/10/02 04:47:19;;;;;;;19.60;5.30;;;;;;;;;;5055178;28;20142;-88
2023/10/02 04:55:23;;;;;;;16.75;5.40;;;;;;;;;;5073919;28;20061;-88
2023/10/02 04:57:54;;;;;;;18.17;5.25;;;;;;;;;;5054859;28;20029;-88
2023/10/02 05:00:27;;;;;;;21.42;6.13;;;;;;;;;;5055880;28;20395;-88
2023/10/02 05:03:09;;;;;;;18.75;5.78;;;;;;;;;;5056203;28;20034;-88
2023/10/02 05:05:38;;;;;;;14.13;4.90;;;;;;;;;;5062920;28;20008;-88
2023/10/02 05:08:15;;;;;;;18.85;6.70;;;;;;;;;;5048372;28;20032;-88
2023/10/02 05:10:42;;;;;;;17.50;5.43;;;;;;;;;;5059123;28;20112;-88
2023/10/02 05:13:08;;;;;;;17.00;5.88;;;;;;;;;;5057101;28;20031;-88
2023/10/02 05:15:33;;;;;;;18.88;5.70;;;;;;;;;;5061690;28;20103;-87
2023/10/02 05:17:59;;;;;;;19.33;5.80;;;;;;;;;;5061019;28;20024;-88
2023/10/02 05:20:26;;;;;;;24.92;6.55;;;;;;;;;;5053846;28;20040;-87
2023/10/02 05:22:58;;;;;;;20.00;5.65;;;;;;;;;;5052703;28;20016;-87
2023/10/02 05:25:25;;;;;;;;;;;;;;;;;;5061867;28;20020;-88
2023/10/02 05:27:52;;;;;;;18.85;5.43;;;;;;;;;;5077080;28;19954;-88
2023/10/02 05:30:18;;;;;;;17.38;5.55;;;;;;;;;;5076457;28;20442;-87
2023/10/02 05:32:43;;;;;;;22.33;5.70;;;;;;;;;;5059050;28;20501;-88
2023/10/02 05:37:41;;;;;;;16.38;4.70;;;;;;;;;;5072380;28;20415;-87
2023/10/02 05:48:11;;;;;;;16.48;5.43;;;;;;;;;;5062444;28;20170;-88
2023/10/02 05:50:40;;;;;;;19.85;6.03;;;;;;;;;;5056502;28;20021;-88
2023/10/02 05:53:06;;;;;;;23.33;5.38;;;;;;;;;;5073719;28;20024;-88
2023/10/02 05:55:56;;;;;;;22.17;5.35;;;;;;;;;;5053494;28;20024;-88
2023/10/02 05:58:27;;;;;;;19.75;5.53;;;;;;;;;;5073224;28;20038;-88
2023/10/02 06:00:53;;;;;;;19.05;5.47;;;;;;;;;;5063939;28;20108;-88
2023/10/02 06:03:18;;;;;;;15.10;4.88;;;;;;;;;;5055562;28;20051;-88
2023/10/02 06:06:06;;;;;;;19.42;5.43;;;;;;;;;;5056827;28;20021;-88
2023/10/02 06:08:33;;;;;;;15.75;4.95;;;;;;;;;;5077190;28;20051;-86
2023/10/02 06:11:08;;;;;;;15.00;5.10;;;;;;;;;;5058336;28;20033;-88
2023/10/02 06:13:37;;;;;;;16.48;5.25;;;;;;;;;;5057892;28;20107;-87
2023/10/02 06:16:07;;;;;;;18.02;6.03;;;;;;;;;;5058228;28;20095;-88
2023/10/02 06:18:32;;;;;;;19.30;5.93;;;;;;;;;;5062285;28;20356;-88
2023/10/02 06:21:00;;;;;;;16.75;5.38;;;;;;;;;;5060451;28;20016;-88
2023/10/02 06:23:29;;;;;;;19.80;5.13;;;;;;;;;;5055252;28;20399;-87
2023/10/02 06:25:55;;;;;;;16.77;5.70;;;;;;;;;;5046831;28;20020;-88
2023/10/02 06:28:25;;;;;;;18.45;5.30;;;;;;;;;;5057848;28;20383;-88
2023/10/02 06:30:51;;;;;;;17.30;5.65;;;;;;;;;;5057537;28;20367;-88
2023/10/02 06:33:21;;;;;;;14.90;4.80;;;;;;;;;;5057756;28;20050;-87
2023/10/02 06:35:56;;;;;;;17.85;5.15;;;;;;;;;;5056603;28;20016;-88
2023/10/02 06:38:21;;;;;;;17.65;5.65;;;;;;;;;;5056425;28;20031;-87
2023/10/02 06:40:56;;;;;;;19.52;6.00;;;;;;;;;;5070123;28;20024;-87
2023/10/02 06:43:31;;;;;;;20.30;5.60;;;;;;;;;;5056232;28;20063;-88
2023/10/02 06:46:07;;;;;;;15.43;5.38;;;;;;;;;;5056698;28;21242;-88
2023/10/02 06:48:39;;;;;;;19.85;6.72;;;;;;;;;;5057230;28;20089;-88
2023/10/02 06:51:04;;;;;;;14.83;5.70;;;;;;;;;;5056802;28;20035;-89
2023/10/02 06:53:30;;;;;;;25.83;6.50;;;;;;;;;;5048039;28;20029;-88
2023/10/02 06:56:10;;;;;;;18.25;5.95;;;;;;;;;;5050250;28;20024;-88
2023/10/02 06:58:54;;;;;;;19.67;6.25;;;;;;;;;;5057213;28;20394;-88
2023/10/02 07:01:20;;;;;;;23.35;6.57;;;;;;;;;;5054540;28;20021;-88
2023/10/02 07:03:51;;;;;;;23.40;6.82;;;;;;;;;;5054871;28;20028;-88
2023/10/02 07:06:20;;;;;;;25.17;7.03;;;;;;;;;;5087773;28;20357;-87
2023/10/02 07:09:09;;;;;;;22.35;6.43;;;;;;;;;;5056219;28;20361;-88
2023/10/02 07:11:35;;;;;;;22.23;6.60;;;;;;;;;;5078999;28;20024;-88
2023/10/02 07:14:03;;;;;;;20.38;5.88;;;;;;;;;;5056446;28;20020;-88
2023/10/02 07:16:29;;;;;;;22.08;6.43;;;;;;;;;;5056261;28;20479;-88
2023/10/02 07:18:58;;;;;;;21.77;7.15;;;;;;;;;;5055085;28;20128;-88
2023/10/02 07:21:25;;;;;;;21.90;6.88;;;;;;;;;;5059776;28;20104;-90
2023/10/02 07:23:50;;;;;;;22.33;6.57;;;;;;;;;;5084056;28;20028;-90
2023/10/02 07:26:19;;;;;;;25.30;6.97;;;;;;;;;;5049089;28;20024;-91
2023/10/02 07:28:51;;;;;;;22.15;6.97;;;;;;;;;;5041943;28;20402;-91
2023/10/02 07:31:17;;;;;;;30.67;7.32;;;;;;;;;;5048178;28;20021;-90
2023/10/02 07:33:44;;;;;;;23.27;7.25;;;;;;;;;;5050959;28;20341;-91
2023/10/02 07:36:14;;;;;;;26.98;7.97;;;;;;;;;;5057333;28;20368;-91
2023/10/02 07:38:42;;;;;;;23.65;6.93;;;;;;;;;;5059645;28;20017;-90
2023/10/02 07:41:23;;;;;;;17.48;6.53;;;;;;;;;;5053668;28;20013;-91
2023/10/02 07:43:53;;;;;;;27.40;7.00;;;;;;;;;;5050139;28;20486;-90
2023/10/02 07:46:22;;;;;;;23.80;7.97;;;;;;;;;;5057908;28;20020;-91
2023/10/02 07:48:57;;;;;;;26.80;7.45;;;;;;;;;;5084492;28;20016;-91
2023/10/02 07:51:38;;;;;;;25.77;7.72;;;;;;;;;;5058566;28;20487;-90
2023/10/02 07:54:06;;;;;;;26.80;8.13;;;;;;;;;;5061059;28;20025;-90
2023/10/02 07:56:33;;;;;;;25.35;6.75;;;;;;;;;;5055160;28;20129;-90
2023/10/02 07:59:01;;;;;;;27.38;8.70;;;;;;;;;;5048025;28;20012;-90
2023/10/02 08:01:33;;;;;;;28.25;7.72;;;;;;;;;;5055951;28;20375;-91
2023/10/02 08:04:00;;;;;;;24.73;7.20;;;;;;;;;;5074142;28;20032;-90
2023/10/02 08:11:41;;;;;;;19.50;6.35;;;;;;;;;;5072238;28;20043;-91
2023/10/02 08:14:34;;;;;;;26.80;8.65;;;;;;;;;;5057680;28;20044;-91
2023/10/02 08:16:59;;;;;;;21.70;6.85;;;;;;;;;;5059294;28;20028;-91
2023/10/02 08:19:24;;;;;;;24.30;7.25;;;;;;;;;;5051862;28;20413;-91
2023/10/02 08:21:49;;;;;;;23.58;7.68;;;;;;;;;;5071154;28;20074;-91
2023/10/02 08:24:15;;;;;;;24.63;7.80;;;;;;;;;;5045248;28;20141;-91
2023/10/02 08:26:43;;;;;;;28.70;7.47;;;;;;;;;;5051294;28;20472;-91
2023/10/02 08:29:21;;;;;;;22.33;6.65;;;;;;;;;;5055229;28;20020;-90
2023/10/02 08:31:50;;;;;;;24.63;7.15;;;;;;;;;;5054797;28;20108;-91
2023/10/02 08:34:24;;;;;;;19.67;6.38;;;;;;;;;;5088146;28;20021;-91
2023/10/02 08:37:04;;;;;;;19.88;6.20;;;;;;;;;;5055708;28;20067;-91
2023/10/02 08:39:37;;;;;;;30.85;8.18;;;;;;;;;;5072832;28;20430;-91
2023/10/02 08:42:09;;;;;;;26.30;8.15;;;;;;;;;;5054508;28;20376;-90
2023/10/02 08:44:38;;;;;;;26.30;8.50;;;;;;;;;;5055413;28;20630;-91
2023/10/02 08:47:06;;;;;;;22.65;7.85;;;;;;;;;;5056012;28;20021;-91
2023/10/02 08:49:32;;;;;;;25.67;7.78;;;;;;;;;;5055119;28;20027;-91
2023/10/02 08:52:00;;;;;;;22.67;7.15;;;;;;;;;;5055847;28;20032;-91
2023/10/02 08:54:27;;;;;;;24.35;7.68;;;;;;;;;;5057503;28;20752;-91
2023/10/02 08:57:06;;;;;;;24.52;7.60;;;;;;;;;;5057949;28;20032;-91
2023/10/02 08:59:38;;;;;;;23.70;6.88;;;;;;;;;;5075656;28;20076;-91
2023/10/02 09:02:14;;;;;;;32.95;8.23;;;;;;;;;;5072964;28;20058;-91
2023/10/02 09:04:57;;;;;;;31.20;7.75;;;;;;;;;;5073274;28;20372;-91
2023/10/02 09:07:44;;;;;;;27.95;7.90;;;;;;;;;;5088771;28;20514;-91
2023/10/02 09:10:12;;;;;;;27.80;7.15;;;;;;;;;;5087615;28;20024;-92
2023/10/02 09:12:48;;;;;;;25.55;6.88;;;;;;;;;;5055128;28;20360;-91
2023/10/02 09:15:24;;;;;;;27.67;8.27;;;;;;;;;;5054701;28;20025;-91
2023/10/02 09:17:49;;;;;;;23.10;7.22;;;;;;;;;;5054938;28;20460;-91
2023/10/02 09:20:16;;;;;;;26.05;8.15;;;;;;;;;;5054437;28;20021;-91
2023/10/02 09:23:07;;;;;;;28.17;7.57;;;;;;;;;;5055574;28;20021;-91
2023/10/02 09:25:37;;;;;;;27.58;8.35;;;;;;;;;;5055285;28;20036;-91
2023/10/02 09:28:13;;;;;;;27.88;7.63;;;;;;;;;;5054807;28;20078;-91
2023/10/02 09:30:38;;;;;;;31.50;8.50;;;;;;;;;;5050846;28;20361;-91
2023/10/02 09:33:08;;;;;;;26.23;7.88;;;;;;;;;;5054617;28;20024;-91
2023/10/02 09:35:40;;;;;;;25.67;7.55;;;;;;;;;;5054933;28;20112;-91
2023/10/02 09:38:15;;;;;;;34.15;10.23;;;;;;;;;;5054674;28;20379;-91
2023/10/02 09:43:28;;;;;;;29.08;8.23;;;;;;;;;;5073139;28;20039;-91
2023/10/02 09:45:59;;;;;;;26.50;7.55;;;;;;;;;;5054774;28;20032;-91
2023/10/02 09:51:14;;;;;;;34.85;7.40;;;;;;;;;;5072242;28;20031;-91
2023/10/02 09:54:02;;;;;;;28.60;8.07;;;;;;;;;;5088637;28;20028;-91
2023/10/02 09:56:34;;;;;;;27.40;8.40;;;;;;;;;;5055357;28;20013;-91
2023/10/02 10:02:57;;;;;;;27.58;8.38;;;;;;;;;;5066064;28;20047;-91
2023/10/02 10:10:29;;;;;;;;;;;;;;;;;;5066449;28;20033;-91
2023/10/02 10:12:55;;;;;;;22.45;6.72;;;;;;;;;;5075964;28;20359;-91
2023/10/02 10:15:25;;;;;;;27.90;7.38;;;;;;;;;;5059403;28;20135;-91
2023/10/02 10:17:51;;;;;;;33.65;7.55;;;;;;;;;;5067713;28;20025;-91
2023/10/02 10:20:25;;;;;;;18.90;6.38;;;;;;;;;;5092287;28;20025;-91
2023/10/02 10:22:56;;;;;;;21.70;6.55;;;;;;;;;;5092808;28;20032;-92
2023/10/02 10:30:39;;;;;;;28.67;7.05;;;;;;;;;;5075851;28;20518;-91
2023/10/02 10:35:34;;;;;;;27.50;7.95;;;;;;;;;;5075890;28;20368;-91
2023/10/02 10:38:03;;;;;;;26.33;6.65;;;;;;;;;;5057442;28;20024;-92
2023/10/02 10:40:43;;;;;;;23.05;7.20;;;;;;;;;;5057923;28;20061;-92
2023/10/02 10:43:12;;;;;;;23.67;6.00;;;;;;;;;;5057819;28;20058;-92
2023/10/02 10:45:39;;;;;;;23.30;7.15;;;;;;;;;;5057561;28;20450;-92
2023/10/02 10:48:18;;;;;;;20.83;6.70;;;;;;;;;;5057103;28;20023;-92
2023/10/02 10:50:56;;;;;;;24.83;7.45;;;;;;;;;;5090229;28;20013;-92
2023/10/02 10:53:32;;;;;;;22.25;6.43;;;;;;;;;;5057310;28;20029;-91
2023/10/02 10:56:05;;;;;;;25.02;7.13;;;;;;;;;;5056459;28;20012;-92
2023/10/02 10:58:33;;;;;;;26.95;6.97;;;;;;;;;;5075136;28;20063;-92
2023/10/02 11:00:59;;;;;;;24.77;9.50;;;;;;;;;;5056264;28;20017;-92
2023/10/02 11:03:26;;;;;;;26.92;8.13;;;;;;;;;;5056699;28;20073;-92
2023/10/02 11:05:52;;;;;;;22.08;7.53;;;;;;;;;;5090276;28;20060;-92
2023/10/02 11:08:28;;;;;;;20.98;6.38;;;;;;;;;;5056694;28;20031;-92
2023/10/02 11:11:21;;;;;;;26.33;7.20;;;;;;;;;;5050251;28;20442;-92
2023/10/02 11:13:54;;;;;;;22.23;5.72;;;;;;;;;;5050145;28;20106;-92
2023/10/02 11:16:36;;;;;;;23.48;6.25;;;;;;;;;;5053622;28;20586;-92
2023/10/02 11:24:46;;;;;;;36.15;9.05;;;;;;;;;;5073793;28;20459;-92
2023/10/02 11:27:18;;;;;;;26.77;7.97;;;;;;;;;;5054757;28;20387;-92
2023/10/02 11:30:01;;;;;;;35.05;8.63;;;;;;;;;;5049879;28;20123;-92
2023/10/02 11:32:53;;;;;;;28.77;7.47;;;;;;;;;;5056384;28;20426;-92
2023/10/02 11:35:18;;;;;;;;;;;;;;;;;;5049813;28;20020;-92
2023/10/02 11:37:44;;;;;;;32.75;8.40;;;;;;;;;;5056932;28;19904;-91
2023/10/02 11:40:13;;;;;;;23.70;6.95;;;;;;;;;;5090495;28;20016;-92
2023/10/02 11:42:38;;;;;;;23.40;6.80;;;;;;;;;;5056743;28;20388;-92
2023/10/02 11:45:04;;;;;;;27.13;7.47;;;;;;;;;;5056653;28;20021;-92
2023/10/02 11:47:29;;;;;;;26.83;7.00;;;;;;;;;;5055949;28;20032;-92
2023/10/02 11:49:57;;;;;;;21.42;6.32;;;;;;;;;;5056492;28;20036;-92
2023/10/02 11:52:22;;;;;;;24.88;6.70;;;;;;;;;;5056833;28;20038;-92
2023/10/02 11:54:47;;;;;;;19.92;5.40;;;;;;;;;;5056371;28;20027;-92
2023/10/02 11:57:12;;;;;;;20.20;6.97;;;;;;;;;;5056334;28;20020;-92
2023/10/02 11:59:39;;;;;;;22.90;7.57;;;;;;;;;;5055391;28;20027;-92
2023/10/02 12:02:04;;;;;;;19.25;5.45;;;;;;;;;;5074125;28;20422;-93
2023/10/02 12:04:30;;;;;;;18.13;5.93;;;;;;;;;;5056025;28;20029;-93
2023/10/02 12:06:56;;;;;;;19.52;5.72;;;;;;;;;;5055921;28;20016;-92
2023/10/02 12:09:24;;;;;;;23.52;7.05;;;;;;;;;;5055198;28;20028;-92
2023/10/02 12:11:50;;;;;;;24.23;7.20;;;;;;;;;;5055475;28;20029;-92
2023/10/02 12:14:15;;;;;;;42.28;8.32;;;;;;;;;;5055968;28;20020;-91
2023/10/02 12:16:41;;;;;;;28.33;8.05;;;;;;;;;;5056081;28;20342;-92
2023/10/02 12:19:10;;;;;;;24.77;7.43;;;;;;;;;;5055136;28;20432;-92
2023/10/02 12:21:36;;;;;;;28.92;7.40;;;;;;;;;;5057629;28;20025;-91
2023/10/02 12:24:03;;;;;;;22.80;7.20;;;;;;;;;;5073914;28;20020;-92
2023/10/02 12:26:29;;;;;;;26.75;7.60;;;;;;;;;;5055752;28;20386;-92
2023/10/02 12:28:54;;;;;;;19.58;6.18;;;;;;;;;;5054538;28;20222;-92
2023/10/02 12:31:19;;;;;;;21.45;6.40;;;;;;;;;;5089217;28;20055;-92
2023/10/02 12:33:46;;;;;;;37.20;8.38;;;;;;;;;;5055585;28;20105;-92
2023/10/02 12:36:12;;;;;;;38.38;7.70;;;;;;;;;;5055890;28;20185;-92
2023/10/02 12:38:38;;;;;;;28.05;8.15;;;;;;;;;;5055958;28;20495;-92
2023/10/02 12:41:10;;;;;;;27.15;8.35;;;;;;;;;;5089791;28;20032;-92
2023/10/02 12:43:35;;;;;;;28.13;8.57;;;;;;;;;;5056090;28;20037;-92
2023/10/02 12:46:01;;;;;;;20.45;6.90;;;;;;;;;;5056043;28;20051;-92
2023/10/02 12:48:30;;;;;;;31.40;8.35;;;;;;;;;;5055431;28;20436;-92
2023/10/02 12:50:55;;;;;;;23.15;6.80;;;;;;;;;;5089316;28;20027;-92
2023/10/02 12:53:20;;;;;;;34.33;9.02;;;;;;;;;;5055464;28;20384;-92
2023/10/02 12:55:47;;;;;;;27.10;7.47;;;;;;;;;;5055432;28;20140;-92
2023/10/02 12:58:14;;;;;;;24.45;6.45;;;;;;;;;;5054800;28;20020;-92
2023/10/02 13:00:40;;;;;;;28.73;6.75;;;;;;;;;;5043251;28;20017;-92
2023/10/02 13:03:06;;;;;;;25.00;6.82;;;;;;;;;;5053053;28;20078;-92
2023/10/02 13:05:34;;;;;;;24.35;6.72;;;;;;;;;;5055069;28;20021;-93
2023/10/02 13:07:59;;;;;;;22.38;6.68;;;;;;;;;;5053859;28;20511;-92
2023/10/02 13:10:24;;;;;;;27.38;7.72;;;;;;;;;;5044416;28;20055;-92
2023/10/02 13:12:50;;;;;;;24.63;6.68;;;;;;;;;;5054907;28;20052;-92
2023/10/02 13:15:15;;;;;;;25.77;6.88;;;;;;;;;;5055124;28;20027;-92
2023/10/02 13:17:42;;;;;;;24.10;6.75;;;;;;;;;;5054749;28;20012;-92
2023/10/02 13:20:08;;;;;;;31.13;6.75;;;;;;;;;;5054540;28;20479;-92
2023/10/02 13:22:35;;;;;;;25.63;8.13;;;;;;;;;;5055076;28;20020;-92
2023/10/02 13:25:04;;;;;;;24.33;6.72;;;;;;;;;;5072743;28;20103;-92
2023/10/02 13:27:31;;;;;;;27.20;7.20;;;;;;;;;;5054715;28;20047;-92
2023/10/02 13:29:56;;;;;;;28.05;7.53;;;;;;;;;;5054107;28;20456;-92
2023/10/02 13:32:26;;;;;;;25.67;7.75;;;;;;;;;;5054490;28;20017;-92
2023/10/02 13:34:56;;;;;;;29.10;7.65;;;;;;;;;;5052201;28;20460;-92
2023/10/02 13:37:21;;;;;;;33.83;8.32;;;;;;;;;;5058000;28;20046;-92
2023/10/02 13:39:47;;;;;;;23.73;6.82;;;;;;;;;;5057706;28;20084;-92
2023/10/02 13:42:14;;;;;;;27.50;8.02;;;;;;;;;;5058705;28;20025;-92
2023/10/02 13:44:39;;;;;;;32.97;8.40;;;;;;;;;;5062178;28;20035;-92
2023/10/02 13:47:05;;;;;;;25.60;8.57;;;;;;;;;;5059162;28;20040;-92
2023/10/02 13:49:31;;;;;;;27.30;8.18;;;;;;;;;;5057673;28;20043;-91
2023/10/02 13:51:56;;;;;;;27.25;8.40;;;;;;;;;;5061752;28;20039;-91
2023/10/02 13:54:21;;;;;;;23.25;7.80;;;;;;;;;;5075853;28;20453;-92
2023/10/02 13:56:47;;;;;;;25.60;8.60;;;;;;;;;;5071304;28;20220;-92
2023/10/02 13:59:14;;;;;;;36.08;9.55;;;;;;;;;;5059620;28;20051;-92
2023/10/02 14:01:40;;;;;;;30.17;8.82;;;;;;;;;;5053169;28;20367;-92
2023/10/02 14:04:06;;;;;;;31.65;8.80;;;;;;;;;;5060357;28;20160;-92
2023/10/02 14:06:32;;;;;;;28.00;7.00;;;;;;;;;;5062252;28;20016;-92
2023/10/02 14:08:57;;;;;;;26.88;8.27;;;;;;;;;;5058500;28;20107;-92
2023/10/02 14:11:23;;;;;;;26.30;7.20;;;;;;;;;;5058663;28;20135;-92
2023/10/02 14:13:49;;;;;;;28.35;8.18;;;;;;;;;;5058065;28;20020;-92
2023/10/02 14:16:15;;;;;;;27.70;7.95;;;;;;;;;;5057036;28;20146;-92
2023/10/02 14:18:41;;;;;;;32.40;8.23;;;;;;;;;;5056880;28;20065;-92
2023/10/02 14:21:08;;;;;;;22.25;7.32;;;;;;;;;;5058154;28;20027;-92
2023/10/02 14:23:34;;;;;;;26.13;6.88;;;;;;;;;;5053031;28;20366;-92
2023/10/02 14:26:00;;;;;;;29.92;8.50;;;;;;;;;;5049701;28;20032;-93
2023/10/02 14:28:25;;;;;;;30.33;8.43;;;;;;;;;;5057617;28;20024;-92
2023/10/02 14:30:51;;;;;;;28.60;9.10;;;;;;;;;;5057255;28;20494;-92
2023/10/02 14:33:17;;;;;;;29.83;9.13;;;;;;;;;;5057427;28;20092;-92
2023/10/02 14:35:43;;;;;;;25.73;7.30;;;;;;;;;;5062673;28;20048;-92
2023/10/02 14:38:08;;;;;;;26.42;7.85;;;;;;;;;;5057528;28;20020;-92
2023/10/02 14:40:34;;;;;;;27.23;8.23;;;;;;;;;;5057213;28;20027;-92
2023/10/02 14:43:02;;;;;;;25.88;7.68;;;;;;;;;;5057032;28;20028;-92
2023/10/02 14:45:30;;;;;;;23.40;7.10;;;;;;;;;;5056413;28;20498;-93
2023/10/02 14:47:56;;;;;;;32.22;8.70;;;;;;;;;;5053517;28;20047;-92
2023/10/02 14:50:25;;;;;;;25.10;7.32;;;;;;;;;;5045468;28;20025;-92
2023/10/02 14:52:55;;;;;;;27.77;7.60;;;;;;;;;;5054356;28;20373;-92
2023/10/02 14:55:23;;;;;;;30.70;7.72;;;;;;;;;;5074266;28;20016;-92
2023/10/02 14:57:49;;;;;;;29.95;7.57;;;;;;;;;;5056705;28;20025;-92
2023/10/02 15:00:14;;;;;;;24.55;7.28;;;;;;;;;;5056953;28;20017;-92
2023/10/02 15:02:43;;;;;;;28.73;7.93;;;;;;;;;;5057008;28;20021;-92
2023/10/02 15:05:15;;;;;;;24.52;7.78;;;;;;;;;;5053891;28;20025;-92
2023/10/02 15:07:49;;;;;;;25.58;7.75;;;;;;;;;;5038081;28;20021;-92
2023/10/02 15:10:16;;;;;;;30.35;7.78;;;;;;;;;;5046107;28;20035;-93
2023/10/02 15:12:42;;;;;;;25.77;7.45;;;;;;;;;;5057844;28;20020;-92
2023/10/02 15:15:13;;;;;;;25.13;7.90;;;;;;;;;;5055704;28;20017;-92
2023/10/02 15:17:49;;;;;;;28.05;8.02;;;;;;;;;;5056813;28;20443;-92
2023/10/02 15:20:21;;;;;;;20.02;7.63;;;;;;;;;;5054343;28;20029;-92
2023/10/02 15:22:50;;;;;;;25.75;7.80;;;;;;;;;;5077112;28;20043;-92
2023/10/02 15:25:16;;;;;;;26.25;8.13;;;;;;;;;;5055748;28;20020;-93
2023/10/02 15:27:45;;;;;;;28.83;7.93;;;;;;;;;;5056642;28;20451;-92
2023/10/02 15:30:11;;;;;;;26.23;8.38;;;;;;;;;;5056748;28;20528;-92
2023/10/02 15:32:40;;;;;;;35.65;8.98;;;;;;;;;;5056292;28;20020;-90
2023/10/02 15:35:05;;;;;;;24.42;7.80;;;;;;;;;;5056297;28;20380;-93
2023/10/02 15:37:32;;;;;;;21.77;6.57;;;;;;;;;;5055780;28;20017;-92
2023/10/02 15:39:58;;;;;;;21.92;7.15;;;;;;;;;;5046544;28;20017;-92
2023/10/02 15:42:23;;;;;;;23.90;7.03;;;;;;;;;;5051744;28;20054;-92
2023/10/02 15:44:48;;;;;;;30.10;8.15;;;;;;;;;;5056010;28;20051;-92
2023/10/02 15:47:14;;;;;;;22.40;6.72;;;;;;;;;;5054822;28;20074;-92
2023/10/02 15:49:39;;;;;;;26.27;7.40;;;;;;;;;;5046092;28;20024;-91
2023/10/02 15:52:04;;;;;;;30.88;8.10;;;;;;;;;;5055825;28;20031;-92
2023/10/02 15:54:30;;;;;;;27.98;8.82;;;;;;;;;;5055457;28;20020;-92
2023/10/02 15:57:02;;;;;;;25.10;7.30;;;;;;;;;;5055968;28;20023;-92
2023/10/02 15:59:27;;;;;;;;;;;;;;;;;;5073653;28;20034;-92